Time;durP1;ratioP1;P1;durP2;ratioP2;P2;SDS_P1;SDS_P2;PMS_P1;PMS_P2;Temp;Humidity;BMP_temperature;BMP_pressure;BME280_temperature;BME280_humidity;BME280_pressure;Samples;Min_cycle;Max_cycle;Signal;HPM_P1;HPM_P2
2022/09/22 00:00:55;;;;;;;1.13;0.80;;;20.80;57.80;;;;;;6191501;28;20072;-78
2022/09/22 00:03:59;;;;;;;2.25;0.70;;;20.80;57.80;;;;;;6191876;28;20085;-78
2022/09/22 00:07:00;;;;;;;0.50;0.50;;;20.80;57.80;;;;;;6192013;28;20054;-77
2022/09/22 00:10:01;;;;;;;0.70;0.60;;;20.80;57.80;;;;;;6191777;28;20041;-77
2022/09/22 00:13:02;;;;;;;0.68;0.60;;;20.80;57.80;;;;;;6191862;28;20341;-77
2022/09/22 00:16:06;;;;;;;3.03;0.60;;;20.80;58.00;;;;;;6191784;28;20465;-78
2022/09/22 00:19:16;;;;;;;0.70;0.60;;;20.80;57.90;;;;;;6190570;28;20542;-77
2022/09/22 00:22:16;;;;;;;1.50;0.70;;;20.80;57.80;;;;;;6191835;28;20026;-78
2022/09/22 00:25:17;;;;;;;1.30;0.75;;;20.80;57.90;;;;;;6196447;28;20030;-77
2022/09/22 00:28:19;;;;;;;1.20;0.60;;;20.80;57.90;;;;;;6191637;28;20116;-78
2022/09/22 00:31:22;;;;;;;0.73;0.57;;;20.80;57.80;;;;;;6196875;28;20511;-77
2022/09/22 00:34:26;;;;;;;0.95;0.70;;;20.80;57.90;;;;;;6189749;28;20072;-77
2022/09/22 00:37:27;;;;;;;0.50;0.50;;;20.80;57.90;;;;;;6192147;28;20110;-78
2022/09/22 00:40:27;;;;;;;0.52;0.50;;;20.80;57.80;;;;;;6191338;28;20423;-78
2022/09/22 00:43:32;;;;;;;0.98;0.60;;;20.80;57.80;;;;;;6191661;28;20107;-78
2022/09/22 00:46:33;;;;;;;0.50;0.50;;;20.80;57.90;;;;;;6186862;28;20026;-77
2022/09/22 00:50:02;;;;;;;0.75;0.60;;;20.80;57.90;;;;;;6191379;28;20030;-77
2022/09/22 00:53:07;;;;;;;1.02;0.60;;;20.80;58.00;;;;;;6190929;28;20530;-77
2022/09/22 00:56:13;;;;;;;1.25;0.70;;;20.80;57.90;;;;;;6190517;28;20025;-77
2022/09/22 00:59:18;;;;;;;1.05;0.60;;;20.80;58.00;;;;;;6191361;28;20046;-77
2022/09/22 01:02:19;;;;;;;0.52;0.50;;;20.80;57.90;;;;;;6191373;28;20103;-78
2022/09/22 01:05:23;;;;;;;1.23;0.77;;;20.80;58.60;;;;;;6191159;28;20308;-77
2022/09/22 01:08:24;;;;;;;0.70;0.70;;;20.80;57.90;;;;;;6189089;28;20129;-78
2022/09/22 01:11:26;;;;;;;0.63;0.40;;;20.80;57.90;;;;;;6191228;28;20031;-77
2022/09/22 01:14:40;;;;;;;0.75;0.50;;;20.80;58.00;;;;;;6188290;28;20018;-77
2022/09/22 01:18:06;;;;;;;1.10;0.70;;;20.80;57.90;;;;;;6191100;28;20072;-77
2022/09/22 01:21:22;;;;;;;0.50;0.40;;;20.80;57.80;;;;;;6190549;28;20299;-77
2022/09/22 01:24:45;;;;;;;1.45;0.70;;;20.80;58.00;;;;;;6190754;28;20041;-77
2022/09/22 01:27:57;;;;;;;0.40;0.40;;;20.80;57.90;;;;;;6189456;28;20034;-77
2022/09/22 01:31:02;;;;;;;0.70;0.60;;;20.80;57.90;;;;;;6190604;28;20026;-77
2022/09/22 01:34:12;;;;;;;0.90;0.57;;;20.80;57.90;;;;;;6190742;28;20554;-78
2022/09/22 01:37:25;;;;;;;1.02;0.60;;;20.80;57.90;;;;;;6189837;28;20504;-77
2022/09/22 01:40:35;;;;;;;0.60;0.50;;;20.80;58.00;;;;;;6190101;28;20106;-77
2022/09/22 01:43:40;;;;;;;0.57;0.47;;;20.80;58.00;;;;;;6188364;28;20061;-77
2022/09/22 01:46:56;;;;;;;;;;;20.80;58.00;;;;;;6190657;28;20087;-78
2022/09/22 01:50:00;;;;;;;0.77;0.40;;;20.80;57.90;;;;;;6190352;28;19914;-78
2022/09/22 01:53:07;;;;;;;0.90;0.63;;;20.80;58.00;;;;;;6190626;28;20366;-77
2022/09/22 01:56:11;;;;;;;0.70;0.50;;;20.80;57.90;;;;;;6189767;28;20073;-78
2022/09/22 01:59:16;;;;;;;0.50;0.40;;;20.80;58.00;;;;;;6136224;29;20413;-78
2022/09/22 02:02:24;;;;;;;1.80;0.50;;;20.80;58.00;;;;;;6138824;28;20783;-78
2022/09/22 02:05:34;;;;;;;0.90;0.50;;;20.80;57.90;;;;;;6152868;28;20283;-77
2022/09/22 02:08:46;;;;;;;0.52;0.50;;;20.80;58.00;;;;;;6138872;29;20100;-78
2022/09/22 02:11:47;;;;;;;0.80;0.63;;;20.80;57.90;;;;;;6133569;28;20023;-77
2022/09/22 02:14:48;;;;;;;0.55;0.50;;;20.80;58.00;;;;;;6222390;28;20778;-77
2022/09/22 02:17:49;;;;;;;0.98;0.52;;;20.80;58.00;;;;;;6122568;28;20023;-78
2022/09/22 02:20:51;;;;;;;1.15;0.63;;;20.80;58.00;;;;;;6138282;29;20119;-77
2022/09/22 02:23:52;;;;;;;0.60;0.50;;;20.80;57.90;;;;;;6149527;28;20035;-77
2022/09/22 02:26:54;;;;;;;0.65;0.40;;;20.80;58.00;;;;;;6152342;28;20128;-78
2022/09/22 02:30:03;;;;;;;0.68;0.65;;;20.80;58.00;;;;;;6177096;28;20408;-78
2022/09/22 02:33:05;;;;;;;1.25;0.80;;;20.80;58.00;;;;;;6189546;28;20025;-77
2022/09/22 02:36:21;;;;;;;0.65;0.52;;;20.80;58.00;;;;;;6189459;28;20061;-77
2022/09/22 02:40:16;;;;;;;0.82;0.65;;;20.80;57.90;;;;;;6189383;28;20380;-78
2022/09/22 02:44:03;;;;;;;0.65;0.60;;;20.80;58.00;;;;;;6114467;29;20573;-77
2022/09/22 02:47:22;;;;;;;0.77;0.50;;;20.80;58.00;;;;;;6166805;28;20115;-78
2022/09/22 02:50:25;;;;;;;0.63;0.40;;;20.80;58.00;;;;;;6166467;28;20023;-77
2022/09/22 02:53:26;;;;;;;0.55;0.40;;;20.80;57.90;;;;;;6192313;28;20105;-77
2022/09/22 02:56:27;;;;;;;0.60;0.47;;;20.80;58.00;;;;;;6199033;28;20026;-77
2022/09/22 02:59:27;;;;;;;0.75;0.50;;;20.80;57.90;;;;;;6193732;28;20023;-76
2022/09/22 03:02:28;;;;;;;0.95;0.50;;;20.80;57.80;;;;;;6191405;28;20066;-77
2022/09/22 03:05:29;;;;;;;0.70;0.60;;;20.80;58.00;;;;;;6192917;28;20029;-78
2022/09/22 03:08:29;;;;;;;1.10;0.60;;;20.80;57.90;;;;;;6198981;28;20493;-78
2022/09/22 03:11:30;;;;;;;0.70;0.50;;;20.80;57.90;;;;;;6199043;28;20022;-77
2022/09/22 03:14:31;;;;;;;0.50;0.40;;;20.80;58.00;;;;;;6193025;28;20057;-77
2022/09/22 03:17:33;;;;;;;1.00;0.63;;;20.80;57.90;;;;;;6193037;28;20484;-77
2022/09/22 03:20:33;;;;;;;0.50;0.50;;;20.70;57.80;;;;;;6192454;28;20508;-77
2022/09/22 03:23:34;;;;;;;0.60;0.55;;;20.80;57.90;;;;;;6192602;28;20038;-78
2022/09/22 03:26:34;;;;;;;0.43;0.40;;;20.70;57.80;;;;;;6192524;28;20488;-77
2022/09/22 03:29:35;;;;;;;0.57;0.50;;;20.80;58.00;;;;;;6192476;28;20040;-77
2022/09/22 03:32:36;;;;;;;1.25;0.77;;;20.80;57.80;;;;;;6192885;28;20044;-75
2022/09/22 03:35:37;;;;;;;0.95;0.57;;;20.80;57.90;;;;;;6192786;28;20080;-76
2022/09/22 03:38:37;;;;;;;0.52;0.50;;;20.80;57.80;;;;;;6193212;28;20026;-77
2022/09/22 03:41:39;;;;;;;0.57;0.50;;;20.70;57.90;;;;;;6192624;28;20076;-77
2022/09/22 03:44:40;;;;;;;0.85;0.52;;;20.80;57.90;;;;;;6192596;28;20505;-77
2022/09/22 03:47:41;;;;;;;0.68;0.60;;;20.80;57.80;;;;;;6192347;28;20053;-77
2022/09/22 03:50:41;;;;;;;0.60;0.40;;;20.70;57.80;;;;;;6192473;28;20026;-78
2022/09/22 03:53:42;;;;;;;0.63;0.50;;;20.70;57.80;;;;;;6192629;28;20097;-76
2022/09/22 03:56:42;;;;;;;0.60;0.50;;;20.70;57.80;;;;;;6198526;28;20026;-76
2022/09/22 03:59:43;;;;;;;0.95;0.70;;;20.70;57.70;;;;;;6198186;28;20042;-78
2022/09/22 04:02:44;;;;;;;2.42;0.40;;;20.70;57.80;;;;;;6191526;28;20293;-77
2022/09/22 04:05:49;;;;;;;0.60;0.50;;;20.70;57.80;;;;;;6198974;28;20041;-78
2022/09/22 04:08:50;;;;;;;0.47;0.45;;;20.70;57.80;;;;;;6187565;28;20629;-78
2022/09/22 04:11:51;;;;;;;0.70;0.50;;;20.70;57.80;;;;;;6192059;28;20030;-77
2022/09/22 04:14:51;;;;;;;0.40;0.40;;;20.70;57.80;;;;;;6191963;28;20030;-77
2022/09/22 04:17:52;;;;;;;0.50;0.50;;;20.70;57.70;;;;;;6191989;28;20147;-77
2022/09/22 04:20:56;;;;;;;0.70;0.60;;;20.80;57.80;;;;;;6192106;28;20053;-77
2022/09/22 04:23:57;;;;;;;0.50;0.50;;;20.70;57.60;;;;;;6192004;28;20022;-77
2022/09/22 04:26:58;;;;;;;0.45;0.45;;;20.70;57.60;;;;;;6191975;28;20499;-78
2022/09/22 04:29:59;;;;;;;0.50;0.50;;;20.70;57.70;;;;;;6198214;28;20034;-77
2022/09/22 04:33:00;;;;;;;0.65;0.50;;;20.70;57.70;;;;;;6197789;28;20030;-77
2022/09/22 04:36:01;;;;;;;0.80;0.60;;;20.70;57.70;;;;;;6191512;28;20037;-77
2022/09/22 04:39:02;;;;;;;0.50;0.50;;;20.70;57.40;;;;;;6192210;28;20026;-77
2022/09/22 04:42:03;;;;;;;0.50;0.45;;;20.80;57.60;;;;;;6191384;28;20066;-77
2022/09/22 04:45:05;;;;;;;0.50;0.50;;;20.70;57.70;;;;;;6199005;28;20073;-78
2022/09/22 04:48:06;;;;;;;0.50;0.50;;;20.80;57.70;;;;;;6191486;28;20164;-78
2022/09/22 04:51:07;;;;;;;0.57;0.40;;;20.70;57.60;;;;;;6189595;28;20481;-78
2022/09/22 04:54:08;;;;;;;0.50;0.50;;;20.70;57.60;;;;;;6191917;28;20023;-77
2022/09/22 04:57:08;;;;;;;0.88;0.63;;;20.70;57.40;;;;;;6197747;28;20029;-78
2022/09/22 05:00:43;;;;;;;1.00;0.57;;;20.70;57.50;;;;;;6191812;28;20014;-77
2022/09/22 05:03:44;;;;;;;1.25;0.75;;;20.70;57.60;;;;;;6191231;28;20079;-77
2022/09/22 05:06:44;;;;;;;4.20;0.65;;;20.70;57.60;;;;;;6194941;28;20038;-77
2022/09/22 05:09:45;;;;;;;0.70;0.52;;;20.70;57.60;;;;;;6191241;28;20112;-77
2022/09/22 05:12:46;;;;;;;0.80;0.60;;;20.70;57.60;;;;;;6191382;28;20026;-77
2022/09/22 05:15:46;;;;;;;1.70;0.50;;;20.70;57.60;;;;;;6190919;28;20482;-78
2022/09/22 05:18:49;;;;;;;0.90;0.73;;;20.70;57.80;;;;;;6190854;28;20353;-78
2022/09/22 05:21:50;;;;;;;0.40;0.40;;;20.70;57.50;;;;;;6190573;28;20033;-78
2022/09/22 05:24:50;;;;;;;1.15;0.60;;;20.70;57.50;;;;;;6190919;28;20023;-77
2022/09/22 05:27:55;;;;;;;0.93;0.47;;;20.70;57.50;;;;;;6190558;28;20026;-78
2022/09/22 05:30:56;;;;;;;0.80;0.55;;;20.80;57.60;;;;;;6190444;28;20033;-77
2022/09/22 05:33:56;;;;;;;0.93;0.60;;;20.70;57.60;;;;;;6190272;28;20058;-77
2022/09/22 05:36:57;;;;;;;0.40;0.40;;;20.70;57.50;;;;;;6196098;28;20080;-78
2022/09/22 05:39:57;;;;;;;0.98;0.70;;;20.70;57.60;;;;;;6190534;28;20217;-77
2022/09/22 05:42:58;;;;;;;0.38;0.38;;;20.70;57.50;;;;;;6190630;28;20051;-78
2022/09/22 05:45:59;;;;;;;0.57;0.50;;;20.70;57.40;;;;;;6196423;28;20499;-77
2022/09/22 05:48:59;;;;;;;0.63;0.50;;;20.70;57.50;;;;;;6175710;28;20068;-77
2022/09/22 05:52:01;;;;;;;0.70;0.57;;;20.70;57.50;;;;;;6188585;28;20030;-77
2022/09/22 05:55:02;;;;;;;0.30;0.30;;;20.70;57.40;;;;;;6188831;28;20602;-76
2022/09/22 05:58:03;;;;;;;1.02;0.80;;;20.70;57.50;;;;;;6195726;28;20027;-78
2022/09/22 06:01:04;;;;;;;0.77;0.52;;;20.70;57.50;;;;;;6182549;28;20435;-76
2022/09/22 06:04:04;;;;;;;0.65;0.60;;;20.70;57.60;;;;;;6174610;28;20030;-77
2022/09/22 06:07:05;;;;;;;1.25;0.70;;;20.70;57.50;;;;;;6197200;28;20035;-77
2022/09/22 06:10:06;;;;;;;1.27;0.60;;;20.70;57.60;;;;;;6191444;28;20018;-77
2022/09/22 06:13:09;;;;;;;0.65;0.50;;;20.80;57.70;;;;;;6182422;28;20397;-77
2022/09/22 06:16:10;;;;;;;0.75;0.50;;;20.70;57.90;;;;;;6183275;28;20023;-76
2022/09/22 06:19:11;;;;;;;1.08;0.70;;;20.80;57.80;;;;;;6190385;28;20477;-77
2022/09/22 06:22:11;;;;;;;0.73;0.60;;;20.80;57.60;;;;;;6184871;28;20030;-76
2022/09/22 06:25:12;;;;;;;1.02;0.63;;;20.80;57.60;;;;;;6183057;28;20113;-77
2022/09/22 06:28:13;;;;;;;1.33;0.75;;;20.90;57.60;;;;;;6176206;28;20034;-77
2022/09/22 06:31:14;;;;;;;1.08;0.68;;;20.90;57.60;;;;;;6192340;28;20054;-76
2022/09/22 06:34:14;;;;;;;2.40;0.65;;;20.90;57.70;;;;;;6175866;28;20035;-77
2022/09/22 06:37:15;;;;;;;1.20;0.68;;;20.90;57.70;;;;;;6192653;28;20107;-75
2022/09/22 06:40:16;;;;;;;1.10;0.60;;;20.90;57.60;;;;;;6185092;28;20023;-77
2022/09/22 06:43:22;;;;;;;1.45;0.63;;;20.90;57.70;;;;;;6181343;28;20074;-76
2022/09/22 06:46:25;;;;;;;1.60;0.85;;;20.90;57.60;;;;;;6191666;28;20470;-77
2022/09/22 06:49:26;;;;;;;2.80;0.60;;;20.90;57.40;;;;;;6195197;28;20480;-77
2022/09/22 06:52:27;;;;;;;4.57;0.70;;;20.90;57.30;;;;;;6194713;28;20033;-77
2022/09/22 06:55:29;;;;;;;0.82;0.60;;;20.90;57.40;;;;;;6200814;28;20053;-76
2022/09/22 06:58:30;;;;;;;1.05;0.80;;;20.90;57.60;;;;;;6194958;28;20026;-77
2022/09/22 07:01:31;;;;;;;1.60;0.80;;;20.90;57.70;;;;;;6195505;28;20035;-77
2022/09/22 07:04:32;;;;;;;3.47;0.80;;;20.90;57.70;;;;;;6195645;28;20032;-77
2022/09/22 07:07:33;;;;;;;3.45;0.73;;;20.80;57.70;;;;;;6184358;28;20027;-77
2022/09/22 07:10:36;;;;;;;1.23;0.70;;;20.80;57.60;;;;;;6181162;28;20380;-77
2022/09/22 07:13:40;;;;;;;1.63;0.90;;;20.80;57.70;;;;;;6219582;28;20049;-77
2022/09/22 07:16:41;;;;;;;1.40;0.73;;;20.80;57.60;;;;;;6210274;28;20027;-78
2022/09/22 07:19:42;;;;;;;0.73;0.60;;;20.80;57.70;;;;;;6195320;28;20026;-77
2022/09/22 07:22:43;;;;;;;1.30;0.68;;;20.80;57.70;;;;;;6193798;28;20033;-78
2022/09/22 07:25:55;;;;;;;2.08;0.70;;;20.80;57.70;;;;;;6195732;28;20042;-77
2022/09/22 07:28:58;;;;;;;0.65;0.55;;;20.80;57.70;;;;;;6194889;28;20034;-77
2022/09/22 07:32:01;;;;;;;2.67;0.70;;;20.80;57.70;;;;;;6194011;28;20023;-77
2022/09/22 07:35:01;;;;;;;0.80;0.60;;;20.80;57.70;;;;;;6193711;28;20037;-77
2022/09/22 07:38:03;;;;;;;1.58;0.90;;;20.80;57.70;;;;;;6194021;28;20038;-77
2022/09/22 07:41:07;;;;;;;1.08;0.70;;;20.80;57.70;;;;;;6193986;28;20072;-78
2022/09/22 07:50:53;;;;;;;1.85;0.93;;;20.80;57.80;;;;;;6193611;28;20023;-78
2022/09/22 07:54:06;;;;;;;5.55;0.93;;;20.80;57.50;;;;;;6188154;28;20435;-77
2022/09/22 07:57:09;;;;;;;3.50;0.90;;;20.80;57.40;;;;;;6193627;28;20128;-77
2022/09/22 08:00:11;;;;;;;1.63;0.90;;;20.80;57.00;;;;;;6199259;28;20448;-77
2022/09/22 08:03:11;;;;;;;2.47;0.90;;;20.70;56.90;;;;;;6194768;28;20064;-78
2022/09/22 08:06:14;;;;;;;2.33;0.90;;;20.70;56.90;;;;;;6194132;28;20094;-78
2022/09/22 08:09:15;;;;;;;2.33;1.10;;;20.80;56.90;;;;;;6193827;28;20109;-78
2022/09/22 08:12:15;;;;;;;4.45;1.15;;;20.70;56.40;;;;;;6186806;28;20030;-77
2022/09/22 08:15:17;;;;;;;3.80;1.65;;;20.70;56.70;;;;;;6204622;28;20034;-76
2022/09/22 08:18:18;;;;;;;4.53;1.48;;;20.70;57.00;;;;;;6193947;28;20053;-77
2022/09/22 08:21:19;;;;;;;4.32;1.60;;;20.70;56.80;;;;;;6193290;28;20397;-78
2022/09/22 08:24:21;;;;;;;5.18;1.70;;;20.70;56.60;;;;;;6194170;28;20032;-76
2022/09/22 08:27:21;;;;;;;3.03;1.38;;;20.70;56.40;;;;;;6193652;28;20041;-77
2022/09/22 08:30:22;;;;;;;3.28;1.60;;;20.70;56.30;;;;;;6192488;28;20022;-78
2022/09/22 08:33:23;;;;;;;9.20;1.48;;;20.70;56.30;;;;;;6194475;28;20497;-78
2022/09/22 08:36:26;;;;;;;10.57;1.50;;;20.70;56.40;;;;;;6193301;28;20032;-78
2022/09/22 08:39:27;;;;;;;3.92;1.30;;;20.70;56.20;;;;;;6192526;28;20035;-78
2022/09/22 08:42:28;;;;;;;5.72;1.38;;;20.70;56.20;;;;;;6191134;28;20516;-78
2022/09/22 08:45:35;;;;;;;4.47;1.50;;;20.70;56.10;;;;;;6193859;28;20034;-77
2022/09/22 08:52:03;;;;;;;3.90;1.58;;;20.70;55.70;;;;;;6193935;28;20452;-78
2022/09/22 08:55:08;;;;;;;4.63;1.25;;;20.60;55.90;;;;;;6193344;28;20118;-79
2022/09/22 08:58:25;;;;;;;4.22;2.15;;;20.60;55.90;;;;;;6192231;28;20034;-77
2022/09/22 09:01:55;;;;;;;7.72;2.13;;;20.70;55.50;;;;;;6187157;28;20030;-74
2022/09/22 09:05:01;;;;;;;3.35;2.00;;;20.70;55.40;;;;;;6148596;28;20405;-74
2022/09/22 09:08:11;;;;;;;8.85;2.10;;;20.70;56.40;;;;;;6177087;28;20061;-73
2022/09/22 09:11:50;;;;;;;3.50;2.00;;;20.70;56.40;;;;;;6191572;28;20374;-71
2022/09/22 09:15:13;;;;;;;4.80;2.20;;;20.70;56.60;;;;;;6191568;28;20056;-74
2022/09/22 09:18:19;;;;;;;3.90;1.83;;;20.60;55.80;;;;;;6163765;28;20031;-74
2022/09/22 09:21:23;;;;;;;5.90;1.90;;;20.60;55.60;;;;;;6166072;28;20575;-74
2022/09/22 09:24:31;;;;;;;4.40;1.63;;;20.60;55.50;;;;;;6185268;28;20065;-74
2022/09/22 09:27:40;;;;;;;3.25;1.80;;;20.70;55.50;;;;;;6190838;28;20037;-74
2022/09/22 09:30:50;;;;;;;2.70;1.45;;;20.60;55.40;;;;;;6166264;28;20027;-74
2022/09/22 09:34:13;;;;;;;3.60;1.67;;;20.60;55.40;;;;;;6179875;28;20175;-73
2022/09/22 09:37:15;;;;;;;3.10;1.70;;;20.70;55.40;;;;;;6191792;28;20034;-73
2022/09/22 09:40:19;;;;;;;3.00;1.60;;;20.60;55.20;;;;;;6190922;28;20033;-73
2022/09/22 09:43:22;;;;;;;3.40;1.70;;;20.70;55.40;;;;;;6181144;28;20048;-73
2022/09/22 09:46:25;;;;;;;3.17;1.52;;;20.60;55.30;;;;;;6180534;28;20027;-73
2022/09/22 09:49:26;;;;;;;2.55;1.70;;;20.70;55.30;;;;;;6182566;28;20056;-73
2022/09/22 09:52:27;;;;;;;3.28;1.70;;;20.70;55.40;;;;;;6190613;28;20027;-74
2022/09/22 09:55:28;;;;;;;4.25;1.60;;;20.70;55.50;;;;;;6190980;28;20030;-73
2022/09/22 10:01:50;;;;;;;3.28;1.60;;;20.70;55.60;;;;;;6195109;28;20030;-73
2022/09/22 10:04:56;;;;;;;3.22;1.30;;;20.70;55.70;;;;;;6193134;28;20032;-73
2022/09/22 10:08:01;;;;;;;3.75;1.38;;;20.70;55.70;;;;;;6195137;28;20045;-73
2022/09/22 10:11:02;;;;;;;3.28;1.55;;;20.70;55.60;;;;;;6194504;28;20042;-74
2022/09/22 10:14:03;;;;;;;3.95;1.52;;;20.70;55.60;;;;;;6140053;28;20043;-74
2022/09/22 10:17:40;;;;;;;4.35;1.30;;;20.70;55.50;;;;;;6142689;29;20040;-73
2022/09/22 10:20:40;;;;;;;2.38;1.25;;;20.70;55.50;;;;;;6151267;28;20035;-72
2022/09/22 10:23:43;;;;;;;2.35;1.08;;;20.60;55.20;;;;;;6143370;29;20204;-73
2022/09/22 10:26:56;;;;;;;3.85;1.40;;;20.70;55.20;;;;;;6132892;28;20159;-73
2022/09/22 10:30:24;;;;;;;3.22;1.08;;;20.60;55.00;;;;;;6120522;28;20031;-73
2022/09/22 10:33:25;;;;;;;5.18;1.52;;;20.60;55.30;;;;;;6133735;29;20528;-73
2022/09/22 10:36:28;;;;;;;1.67;0.82;;;20.60;55.40;;;;;;6151182;28;20082;-73
2022/09/22 10:39:38;;;;;;;1.95;1.02;;;20.60;54.90;;;;;;6143706;29;20149;-73
2022/09/22 10:42:44;;;;;;;1.48;0.93;;;20.60;54.80;;;;;;6153800;28;20142;-74
2022/09/22 10:45:59;;;;;;;3.65;1.20;;;20.60;54.30;;;;;;6168466;28;20529;-73
2022/09/22 10:49:07;;;;;;;1.48;0.90;;;20.60;54.70;;;;;;6193928;28;20034;-73
2022/09/22 10:52:26;;;;;;;3.10;0.95;;;20.60;54.60;;;;;;6194352;28;20100;-73
2022/09/22 10:55:54;;;;;;;3.42;1.20;;;20.60;54.40;;;;;;6191288;28;20539;-73
2022/09/22 10:59:31;;;;;;;3.67;1.00;;;20.60;54.50;;;;;;6172153;28;20393;-73
2022/09/22 11:02:56;;;;;;;2.15;1.05;;;20.60;54.50;;;;;;6194132;28;20115;-73
2022/09/22 11:13:36;;;;;;;1.73;0.90;;;20.60;54.50;;;;;;6194781;28;20030;-74
2022/09/22 11:17:05;;;;;;;2.95;1.05;;;20.60;54.60;;;;;;6194320;28;20022;-73
2022/09/22 11:20:44;;;;;;;3.92;0.93;;;20.60;54.60;;;;;;6194737;28;20532;-73
2022/09/22 11:24:05;;;;;;;3.78;1.05;;;20.70;54.60;;;;;;6194096;28;20134;-73
2022/09/22 11:27:17;;;;;;;5.03;1.13;;;20.60;54.60;;;;;;6192940;28;20133;-72
2022/09/22 11:30:21;;;;;;;4.57;0.68;;;20.60;54.70;;;;;;6193953;28;20030;-73
2022/09/22 11:33:31;;;;;;;1.95;0.77;;;20.70;55.00;;;;;;6194383;28;20496;-73
2022/09/22 11:36:38;;;;;;;2.65;0.80;;;20.70;54.80;;;;;;6194687;28;20027;-73
2022/09/22 11:39:59;;;;;;;1.27;0.80;;;20.70;54.60;;;;;;6192554;28;20185;-73
2022/09/22 11:43:20;;;;;;;2.97;0.85;;;20.70;55.00;;;;;;6193492;28;20124;-73
2022/09/22 11:46:34;;;;;;;1.65;0.75;;;20.70;54.80;;;;;;6193820;28;20023;-73
2022/09/22 11:49:53;;;;;;;1.23;0.73;;;20.70;54.90;;;;;;6194052;28;20026;-73
2022/09/22 11:53:26;;;;;;;2.67;0.60;;;20.70;54.80;;;;;;6192703;28;20065;-73
2022/09/22 11:56:38;;;;;;;1.25;0.77;;;20.70;54.60;;;;;;6193125;28;20500;-73
2022/09/22 11:59:42;;;;;;;2.67;0.60;;;20.70;54.80;;;;;;6192823;28;20048;-73
2022/09/22 12:02:53;;;;;;;1.13;0.65;;;20.70;54.90;;;;;;6169421;28;20038;-73
2022/09/22 12:06:07;;;;;;;1.05;0.80;;;20.70;55.10;;;;;;6178911;28;20030;-73
2022/09/22 12:09:22;;;;;;;2.00;0.63;;;20.70;55.20;;;;;;6193993;28;20481;-72
2022/09/22 12:12:23;;;;;;;1.13;0.60;;;20.70;55.10;;;;;;6193105;28;20113;-73
2022/09/22 12:15:49;;;;;;;0.63;0.55;;;20.70;55.20;;;;;;6192419;28;20054;-73
2022/09/22 12:19:12;;;;;;;1.23;0.65;;;20.70;55.20;;;;;;6198643;28;20027;-73
2022/09/22 12:22:30;;;;;;;0.90;0.52;;;20.70;55.30;;;;;;6185861;28;20380;-73
2022/09/22 12:25:52;;;;;;;0.63;0.50;;;20.70;55.30;;;;;;6193030;28;20464;-73
2022/09/22 12:28:54;;;;;;;1.15;0.70;;;20.70;55.30;;;;;;6193044;28;20042;-73
2022/09/22 12:31:57;;;;;;;1.42;0.70;;;20.70;55.20;;;;;;6193164;28;20124;-73
2022/09/22 12:34:59;;;;;;;0.82;0.60;;;20.70;55.20;;;;;;6193481;28;20030;-73
2022/09/22 12:38:01;;;;;;;3.03;0.70;;;20.70;55.20;;;;;;6192973;28;20445;-73
2022/09/22 12:41:03;;;;;;;1.25;0.50;;;20.70;55.30;;;;;;6191602;28;20293;-73
2022/09/22 12:44:28;;;;;;;0.52;0.52;;;20.70;55.10;;;;;;6243493;28;20394;-73
2022/09/22 12:47:32;;;;;;;1.05;0.63;;;20.70;55.20;;;;;;6224163;28;20499;-72
2022/09/22 12:50:42;;;;;;;0.80;0.50;;;20.70;55.20;;;;;;6216475;28;20049;-73
2022/09/22 12:53:43;;;;;;;0.70;0.50;;;20.70;55.30;;;;;;6216729;28;20023;-73
2022/09/22 12:56:51;;;;;;;0.57;0.50;;;20.70;55.30;;;;;;6216158;28;20026;-71
2022/09/22 13:00:04;;;;;;;0.68;0.50;;;20.70;55.30;;;;;;6216515;28;20227;-72
2022/09/22 13:03:24;;;;;;;1.30;0.70;;;20.70;55.30;;;;;;6216294;28;20068;-73
2022/09/22 13:06:24;;;;;;;1.08;0.60;;;20.70;55.30;;;;;;6216639;28;20041;-72
2022/09/22 13:09:28;;;;;;;0.70;0.57;;;20.70;55.40;;;;;;6216077;28;20026;-72
2022/09/22 13:12:29;;;;;;;1.40;0.70;;;20.70;55.40;;;;;;6216171;28;20066;-73
2022/09/22 13:15:48;;;;;;;0.57;0.47;;;20.70;55.40;;;;;;6216085;28;20030;-73
2022/09/22 13:18:52;;;;;;;0.55;0.50;;;20.70;55.30;;;;;;6214548;28;20026;-71
2022/09/22 13:21:53;;;;;;;0.52;0.50;;;20.70;55.30;;;;;;6215484;28;20552;-73
2022/09/22 13:24:54;;;;;;;1.05;0.55;;;20.70;55.20;;;;;;6215803;28;20045;-73
2022/09/22 13:28:02;;;;;;;0.90;0.60;;;20.70;55.30;;;;;;6214983;28;20378;-73
2022/09/22 13:31:14;;;;;;;1.20;0.55;;;20.70;55.30;;;;;;6216094;28;20029;-73
2022/09/22 13:34:25;;;;;;;0.55;0.43;;;20.70;55.30;;;;;;6215641;28;20030;-73
2022/09/22 13:37:26;;;;;;;0.60;0.52;;;20.70;55.30;;;;;;6215433;28;20033;-74
2022/09/22 13:40:30;;;;;;;0.80;0.60;;;20.60;55.30;;;;;;6215557;28;20037;-73
2022/09/22 13:43:38;;;;;;;0.50;0.50;;;20.70;55.50;;;;;;6214841;28;20129;-73
2022/09/22 13:46:45;;;;;;;0.60;0.50;;;20.70;55.40;;;;;;6236123;28;20025;-73
2022/09/22 13:49:53;;;;;;;1.75;0.77;;;20.60;55.30;;;;;;6215362;28;20022;-72
2022/09/22 13:52:54;;;;;;;2.72;0.60;;;20.60;55.20;;;;;;6196513;28;20038;-73
2022/09/22 13:55:56;;;;;;;1.17;0.70;;;20.60;55.00;;;;;;6197395;28;20050;-73
2022/09/22 13:59:01;;;;;;;1.90;0.90;;;20.70;54.70;;;;;;6184609;28;20104;-72
2022/09/22 14:02:07;;;;;;;1.92;0.70;;;20.70;54.70;;;;;;6197146;28;20066;-73
2022/09/22 14:05:16;;;;;;;0.75;0.60;;;20.70;54.80;;;;;;6196646;28;20092;-73
2022/09/22 14:08:22;;;;;;;3.17;1.65;;;20.70;54.80;;;;;;6194740;28;20037;-75
2022/09/22 14:11:29;;;;;;;7.63;4.55;;;20.70;54.90;;;;;;6196787;28;20033;-73
2022/09/22 14:14:29;;;;;;;7.25;4.93;;;20.70;55.10;;;;;;6196547;28;20504;-72
2022/09/22 14:17:30;;;;;;;6.63;5.68;;;20.70;55.30;;;;;;6196664;28;20030;-73
2022/09/22 14:20:31;;;;;;;7.70;5.15;;;20.70;55.40;;;;;;6196823;28;20053;-72
2022/09/22 14:23:33;;;;;;;8.95;4.25;;;20.70;55.40;;;;;;6199486;28;20030;-71
2022/09/22 14:26:37;;;;;;;7.03;4.85;;;20.70;55.50;;;;;;6220854;28;20021;-73
2022/09/22 14:29:39;;;;;;;7.25;4.65;;;20.70;55.50;;;;;;6197008;28;20058;-73
2022/09/22 14:32:43;;;;;;;5.35;3.78;;;20.70;55.50;;;;;;6196385;28;20122;-73
2022/09/22 14:35:44;;;;;;;5.75;4.05;;;20.70;55.60;;;;;;6196461;28;20053;-72
2022/09/22 14:38:45;;;;;;;4.57;3.45;;;20.70;55.50;;;;;;6194453;28;20023;-73
2022/09/22 14:41:50;;;;;;;4.00;3.58;;;20.70;55.50;;;;;;6196362;28;20096;-73
2022/09/22 14:44:52;;;;;;;5.78;2.85;;;20.70;55.40;;;;;;6203234;28;20616;-73
2022/09/22 14:48:11;;;;;;;5.00;2.75;;;20.70;55.40;;;;;;6179758;28;20092;-73
2022/09/22 14:51:19;;;;;;;4.72;2.47;;;20.70;55.50;;;;;;6196113;28;20050;-73
2022/09/22 14:54:19;;;;;;;4.57;2.60;;;20.70;55.50;;;;;;6195933;28;20053;-73
2022/09/22 14:57:20;;;;;;;4.15;2.95;;;20.70;55.50;;;;;;6195084;28;20066;-73
2022/09/22 15:03:43;;;;;;;5.60;2.67;;;20.70;55.60;;;;;;6195332;28;20038;-73
2022/09/22 15:06:45;;;;;;;4.00;2.40;;;20.70;55.60;;;;;;6195160;28;20098;-73
2022/09/22 15:09:51;;;;;;;3.78;2.30;;;20.70;55.60;;;;;;6195427;28;20022;-73
2022/09/22 15:12:53;;;;;;;3.58;2.28;;;20.70;55.60;;;;;;6195715;28;20095;-73
2022/09/22 15:15:54;;;;;;;5.03;2.40;;;20.70;55.70;;;;;;6195674;28;20034;-72
2022/09/22 15:18:54;;;;;;;2.78;2.08;;;20.70;55.70;;;;;;6194883;28;20045;-72
2022/09/22 15:21:55;;;;;;;6.05;2.20;;;20.70;55.60;;;;;;6194159;28;20042;-73
2022/09/22 15:24:56;;;;;;;2.40;1.90;;;20.70;55.70;;;;;;6198390;28;20030;-72
2022/09/22 15:27:58;;;;;;;3.03;1.90;;;20.70;55.70;;;;;;6215693;28;20570;-73
2022/09/22 15:30:58;;;;;;;2.95;1.95;;;20.70;55.70;;;;;;6172041;28;20038;-73
2022/09/22 15:34:01;;;;;;;2.80;2.28;;;20.70;55.70;;;;;;6181607;28;20409;-73
2022/09/22 15:37:03;;;;;;;4.53;1.75;;;20.70;55.80;;;;;;6194685;28;20049;-73
2022/09/22 15:40:21;;;;;;;3.95;1.80;;;20.70;55.70;;;;;;6194285;28;20185;-73
2022/09/22 15:43:23;;;;;;;3.22;1.90;;;20.70;55.80;;;;;;6194136;28;20058;-73
2022/09/22 15:46:32;;;;;;;3.00;2.08;;;20.70;55.80;;;;;;6215456;28;20471;-73
2022/09/22 15:49:35;;;;;;;3.00;1.75;;;20.70;55.80;;;;;;6203787;28;20034;-73
2022/09/22 15:52:35;;;;;;;3.53;1.58;;;20.70;55.80;;;;;;6194836;28;20113;-73
2022/09/22 15:55:36;;;;;;;2.78;1.92;;;20.70;55.80;;;;;;6193440;28;20478;-73
2022/09/22 15:58:39;;;;;;;3.00;1.80;;;20.70;55.80;;;;;;6194329;28;20022;-73
2022/09/22 16:01:40;;;;;;;2.80;1.77;;;20.70;55.80;;;;;;6194308;28;20041;-71
2022/09/22 16:04:40;;;;;;;2.45;1.85;;;20.70;55.80;;;;;;6194343;28;20027;-73
2022/09/22 16:07:48;;;;;;;3.33;1.60;;;20.70;55.80;;;;;;6193911;28;20390;-73
2022/09/22 16:10:49;;;;;;;5.03;1.33;;;20.70;55.80;;;;;;6194791;28;20254;-73
2022/09/22 16:13:49;;;;;;;5.43;2.00;;;20.70;55.90;;;;;;6193684;28;20029;-73
2022/09/22 16:16:50;;;;;;;2.70;1.75;;;20.70;55.90;;;;;;6191879;28;20022;-74
2022/09/22 16:19:51;;;;;;;3.28;2.17;;;20.70;55.90;;;;;;6191767;28;20038;-73
2022/09/22 16:22:52;;;;;;;3.05;1.42;;;20.70;55.90;;;;;;6192198;28;20096;-74
2022/09/22 16:25:53;;;;;;;4.88;1.83;;;20.70;55.90;;;;;;6192028;28;20101;-73
2022/09/22 16:28:54;;;;;;;4.78;1.38;;;20.70;56.00;;;;;;6188884;28;20027;-73
2022/09/22 16:31:55;;;;;;;2.40;1.80;;;20.70;56.00;;;;;;6193174;28;20061;-73